Terminal Aerodrome Forecast
Issued by NWS

Current Version | Previous Version | Text Only | Print | Product List | Glossary On
Versions: 1 2 3 4 5 6 7 8 9 10 11 12 13 14 15 16 17 18 19 20 21 22 23 24
000
FTUS43 KDTX 260500
TAFPTK
TAF
KPTK 260520Z 2606/2706 21005KT P6SM SCT090 BKN150
     FM261400 21011KT P6SM SCT060 BKN120
     FM262000 22012G20KT P6SM SCT040 BKN080
     FM270000 20006KT 6SM HZ SCT030 BKN050=

USA.gov is the U.S. government's official web portal to all federal, state and local government web resources and services.